createdAt,value
2023-03-30T06:16:20.555Z,98206.84
2023-03-30T06:27:03.791Z,98187.84
2023-03-30T06:29:31.522Z,98212.03
2023-03-30T06:31:59.262Z,98218.72
2023-03-30T06:34:26.661Z,98227.44
2023-03-30T06:36:54.046Z,98221.09
2023-03-30T06:39:22.796Z,98228.19
2023-03-30T06:41:50.155Z,98224.56
2023-03-30T06:44:18.002Z,98224.25
2023-03-30T06:46:45.373Z,98224.97
2023-03-30T06:49:13.248Z,98230.84
2023-03-30T06:51:42.045Z,98223.00
2023-03-30T06:54:09.582Z,98232.91
2023-03-30T06:56:36.966Z,98219.34
2023-03-30T06:59:05.533Z,98222.91
2023-03-30T07:01:33.662Z,98224.13
2023-03-30T07:04:01.119Z,98225.72
2023-03-30T07:06:28.532Z,98239.28
2023-03-30T07:08:56.050Z,98234.34
2023-03-30T07:11:23.605Z,98235.19
2023-03-30T07:13:51.087Z,98242.25
2023-03-30T07:16:18.543Z,98249.38
2023-03-30T07:18:46.016Z,98257.09
2023-03-30T07:21:14.347Z,98256.28
2023-03-30T07:23:43.461Z,98264.91
2023-03-30T07:26:12.120Z,98268.44
2023-03-30T07:28:40.497Z,98270.44
2023-03-30T07:31:13.880Z,98269.94
2023-03-30T07:33:42.058Z,98271.44
2023-03-30T07:36:10.232Z,98277.22
2023-03-30T07:38:37.981Z,98287.66
2023-03-30T07:41:13.261Z,98292.19
2023-03-30T07:43:41.465Z,98286.69
2023-03-30T07:46:12.535Z,98254.75
2023-03-30T07:48:41.465Z,98238.88
2023-03-30T07:51:14.001Z,98281.78
2023-03-30T07:53:42.178Z,98289.03
2023-03-30T07:56:10.582Z,98294.81
2023-03-30T07:58:39.232Z,98300.09
2023-03-30T08:01:06.919Z,98309.69
2023-03-30T08:03:34.950Z,98298.56
2023-03-30T08:06:05.606Z,98296.94
2023-03-30T08:08:35.058Z,98305.31
2023-03-30T08:11:02.820Z,98302.91
2023-03-30T08:13:31.808Z,98301.69
2023-03-30T08:15:59.405Z,98307.31
2023-03-30T08:18:29.050Z,98314.41
2023-03-30T08:20:56.888Z,98316.09
2023-03-30T08:23:25.135Z,98320.06
2023-03-30T08:25:56.101Z,98322.13
2023-03-30T08:28:23.576Z,98332.84
2023-03-30T08:30:51.356Z,98346.38
2023-03-30T08:33:19.228Z,98358.28
2023-03-30T08:35:48.139Z,98375.41
2023-03-30T08:38:19.398Z,98394.44
2023-03-30T08:40:51.047Z,98404.31
2023-03-30T08:44:02.705Z,98366.16
2023-03-30T08:46:30.974Z,98388.72
2023-03-30T08:49:18.818Z,98368.56
2023-03-30T08:51:50.018Z,98364.19
2023-03-30T08:54:22.053Z,98369.25
2023-03-30T08:58:02.879Z,98355.09
2023-03-30T09:00:59.097Z,98355.03
2023-03-30T09:03:52.079Z,98365.81
2023-03-30T09:06:47.109Z,98373.69
2023-03-30T09:09:24.931Z,98352.78
2023-03-30T09:12:34.356Z,98363.91
2023-03-30T09:15:52.423Z,98364.28
2023-03-30T09:18:31.885Z,98367.06
2023-03-30T09:21:11.084Z,98376.63
2023-03-30T09:23:40.059Z,98377.38
2023-03-30T09:27:04.572Z,98378.94
2023-03-30T09:29:53.461Z,98378.97
2023-03-30T09:32:38.050Z,98383.69
2023-03-30T09:35:24.997Z,98381.31
2023-03-30T09:37:52.448Z,98384.03
2023-03-30T09:41:35.300Z,98397.13
2023-03-30T09:44:03.046Z,98405.47
2023-03-30T09:46:31.078Z,98395.91
2023-03-30T09:49:17.369Z,98403.84
2023-03-30T09:52:08.504Z,98411.44
2023-03-30T09:54:41.793Z,98420.16
2023-03-30T09:57:32.983Z,98424.13
2023-03-30T10:00:21.809Z,98433.28
2023-03-30T10:03:03.722Z,98446.38
2023-03-30T10:05:37.958Z,98443.59
2023-03-30T10:08:22.934Z,98451.16
2023-03-30T10:10:58.479Z,98455.16
2023-03-30T10:13:42.245Z,98480.56
2023-03-30T10:16:33.429Z,98475.38
2023-03-30T10:19:16.831Z,98459.50
2023-03-30T10:21:47.073Z,98471.00
2023-03-30T10:24:14.413Z,98473.41
2023-03-30T10:26:47.427Z,98472.59
2023-03-30T10:29:22.903Z,98479.00
2023-03-30T10:32:16.284Z,98483.72
2023-03-30T10:35:01.976Z,98473.41
2023-03-30T10:37:42.940Z,98481.72
2023-03-30T10:40:40.966Z,98491.66
2023-03-30T10:43:32.999Z,98484.53
2023-03-30T10:46:30.382Z,98480.56
2023-03-30T10:49:54.242Z,98475.78
2023-03-30T10:53:03.876Z,98480.59
2023-03-30T10:56:22.064Z,98495.25
2023-03-30T10:59:49.523Z,98492.47
2023-03-30T11:03:03.791Z,98501.22
2023-03-30T11:05:46.285Z,98506.78
2023-03-30T11:08:38.286Z,98511.13
2023-03-30T11:11:07.299Z,98498.84
2023-03-30T11:13:43.975Z,98492.78
2023-03-30T11:16:31.608Z,98501.94
2023-03-30T11:19:39.978Z,98505.50
2023-03-30T11:22:47.418Z,98505.91
2023-03-30T11:25:29.851Z,98502.34
2023-03-30T11:29:17.192Z,98513.09
2023-03-30T11:32:17.453Z,98523.41
2023-03-30T11:35:31.767Z,98545.06
2023-03-30T11:38:23.543Z,98548.19
2023-03-30T11:41:33.898Z,98552.38
2023-03-30T11:44:01.857Z,98546.44
2023-03-30T11:47:14.794Z,98542.72
2023-03-30T11:50:30.282Z,98527.06
2023-03-30T11:53:45.922Z,98511.97
2023-03-30T11:57:00.543Z,98521.22
2023-03-30T12:00:41.116Z,98512.22
2023-03-30T12:03:45.188Z,98512.53
2023-03-30T12:07:00.663Z,98518.59
2023-03-30T12:09:54.608Z,98510.75
2023-03-30T12:12:39.369Z,98509.16
2023-03-30T12:15:16.044Z,98499.66
2023-03-30T12:18:02.990Z,98492.47
2023-03-30T12:21:16.672Z,98481.38
2023-03-30T12:23:54.678Z,98490.47
2023-03-30T12:26:34.361Z,98492.84
2023-03-30T12:29:48.096Z,98496.41
2023-03-30T12:32:03.304Z,98481.84
2023-03-30T12:34:41.652Z,98469.78
2023-03-30T12:37:38.218Z,98463.44
2023-03-30T12:40:26.211Z,98443.75
2023-03-30T12:43:24.104Z,98428.66
2023-03-30T12:46:45.323Z,98436.88
2023-03-30T12:50:04.401Z,98438.44
2023-03-30T12:53:32.284Z,98436.72
2023-03-30T12:56:22.624Z,98430.06
2023-03-30T12:59:42.963Z,98412.78
2023-03-30T13:03:12.443Z,98421.31
2023-03-30T13:05:45.041Z,98407.47
2023-03-30T13:08:38.415Z,98400.41
2023-03-30T13:11:22.798Z,98393.38
2023-03-30T13:14:11.320Z,98396.53
2023-03-30T13:17:20.502Z,98397.34
2023-03-30T13:20:29.224Z,98391.75
2023-03-30T13:23:32.432Z,98362.06
2023-03-30T13:26:34.616Z,98362.47
2023-03-30T13:29:17.236Z,98353.25
2023-03-30T13:32:41.450Z,98337.56
2023-03-30T13:36:04.528Z,98326.44
2023-03-30T13:40:01.434Z,98340.13
2023-03-30T13:43:20.126Z,98327.13
2023-03-30T13:46:45.206Z,98340.78
2023-03-30T13:49:58.071Z,98334.25
2023-03-30T13:52:41.345Z,98322.53
2023-03-30T13:55:37.282Z,98330.88
2023-03-30T13:58:30.837Z,98356.38
2023-03-30T14:01:10.711Z,98329.25
2023-03-30T14:04:00.942Z,98319.91
2023-03-30T14:06:34.550Z,98338.38
2023-03-30T14:09:07.698Z,98324.84
2023-03-30T14:11:45.605Z,98337.66
2023-03-30T14:14:47.398Z,98319.06
2023-03-30T14:17:22.700Z,98320.66
2023-03-30T14:20:45.628Z,98317.59
2023-03-30T14:23:32.513Z,98315.66
2023-03-30T14:26:18.575Z,98322.88
2023-03-30T14:28:46.972Z,98342.63
2023-03-30T14:31:22.328Z,98329.44
2023-03-30T14:33:50.104Z,98320.31
2023-03-30T14:36:20.691Z,98293.81
2023-03-30T14:38:53.956Z,98312.59
2023-03-30T14:41:28.407Z,98351.56
2023-03-30T14:44:07.550Z,98326.41
2023-03-30T14:46:50.067Z,98329.44
2023-03-30T14:49:32.706Z,98320.09
2023-03-30T14:52:27.526Z,98324.59
2023-03-30T14:55:05.097Z,98295.19
2023-03-30T14:57:40.537Z,98319.69
2023-03-30T15:00:23.001Z,98333.47
2023-03-30T15:03:01.651Z,98323.69
2023-03-30T15:05:43.004Z,98330.56
2023-03-30T15:08:27.930Z,98311.13
2023-03-30T15:11:21.617Z,98313.88
2023-03-30T15:14:03.990Z,98309.06
2023-03-30T15:16:34.063Z,98309.63
2023-03-30T15:19:24.512Z,98318.16
2023-03-30T15:21:54.712Z,98324.38
2023-03-30T15:24:32.361Z,98321.41
2023-03-30T15:27:06.789Z,98312.84
2023-03-30T15:29:34.655Z,98317.28
2023-03-30T15:32:26.082Z,98309.81
2023-03-30T15:35:16.019Z,98309.16
2023-03-30T15:38:04.361Z,98309.59
2023-03-30T15:40:39.129Z,98317.91
2023-03-30T15:43:21.558Z,98318.31
2023-03-30T15:46:04.626Z,98301.53
2023-03-30T15:48:45.960Z,98304.94
2023-03-30T15:51:43.636Z,98313.41
2023-03-30T15:54:22.674Z,98308.53
2023-03-30T15:57:18.099Z,98312.47
2023-03-30T15:59:51.244Z,98310.91
2023-03-30T16:02:40.426Z,98309.97
2023-03-30T16:05:22.841Z,98307.50
2023-03-30T16:07:50.717Z,98307.13
2023-03-30T16:10:28.275Z,98305.38
2023-03-30T16:12:58.443Z,98308.75
2023-03-30T16:15:37.891Z,98305.47
2023-03-30T16:18:13.346Z,98298.03
2023-03-30T16:20:40.870Z,98302.72
2023-03-30T16:23:09.335Z,98288.41
2023-03-30T16:25:44.692Z,98294.56
2023-03-30T16:28:21.859Z,98297.19
2023-03-30T16:30:55.529Z,98291.94
2023-03-30T16:33:24.520Z,98298.25
2023-03-30T16:35:52.145Z,98303.00
2023-03-30T16:38:19.834Z,98303.38
2023-03-30T16:40:58.662Z,98292.31
2023-03-30T16:43:27.388Z,98285.31
2023-03-30T16:45:55.119Z,98293.63
2023-03-30T16:48:24.365Z,98286.16
2023-03-30T16:50:57.140Z,98285.25
2023-03-30T16:53:24.942Z,98287.50
2023-03-30T16:55:52.360Z,98287.22
2023-03-30T16:58:19.761Z,98291.44
2023-03-30T17:00:53.247Z,98286.56
2023-03-30T17:03:20.970Z,98281.34
2023-03-30T17:05:49.071Z,98287.69
2023-03-30T17:08:27.595Z,98294.31
2023-03-30T17:11:05.226Z,98282.94
2023-03-30T17:13:32.969Z,98288.38
2023-03-30T17:16:02.953Z,98294.50
2023-03-30T17:18:32.108Z,98280.91
2023-03-30T17:21:03.207Z,98294.16
2023-03-30T17:23:33.124Z,98288.47
2023-03-30T17:26:02.556Z,98292.81
2023-03-30T17:28:35.617Z,98294.50
2023-03-30T17:31:12.174Z,98290.88
2023-03-30T17:33:39.968Z,98304.97
2023-03-30T17:36:23.237Z,98313.25
2023-03-30T17:38:51.923Z,98320.84
2023-03-30T17:41:20.795Z,98321.56
2023-03-30T17:43:49.079Z,98321.50
2023-03-30T17:46:19.775Z,98327.31
2023-03-30T17:48:47.682Z,98329.84
2023-03-30T17:51:15.117Z,98331.28
2023-03-30T17:53:43.758Z,98333.34
2023-03-30T17:56:14.563Z,98327.81
2023-03-30T17:58:42.056Z,98331.28
2023-03-30T18:01:12.437Z,98318.09
2023-03-30T18:03:40.842Z,98332.66
2023-03-30T18:06:11.795Z,98341.16
2023-03-30T18:08:39.771Z,98336.75
2023-03-30T18:11:07.467Z,98336.16
2023-03-30T18:13:35.142Z,98339.81
2023-03-30T18:16:02.786Z,98337.53
2023-03-30T18:18:32.119Z,98325.00
2023-03-30T18:21:06.333Z,98337.22
2023-03-30T18:23:35.171Z,98331.91
2023-03-30T18:26:10.262Z,98341.09
2023-03-30T18:28:42.524Z,98336.59
2023-03-30T18:31:10.370Z,98331.97
2023-03-30T18:33:39.438Z,98337.03
2023-03-30T18:36:13.270Z,98341.59
2023-03-30T18:38:41.379Z,98342.22
2023-03-30T18:41:13.301Z,98342.44
2023-03-30T18:43:40.741Z,98343.50
2023-03-30T18:46:12.773Z,98345.34
2023-03-30T18:48:40.465Z,98342.09
2023-03-30T18:51:11.940Z,98344.09
2023-03-30T18:53:39.562Z,98345.50
2023-03-30T18:56:07.483Z,98351.13
2023-03-30T18:58:42.425Z,98346.28
2023-03-30T19:01:12.963Z,98354.38
2023-03-30T19:03:40.756Z,98356.13
2023-03-30T19:06:24.547Z,98345.47
2023-03-30T19:08:52.072Z,98343.25
2023-03-30T19:11:24.456Z,98339.69
2023-03-30T19:13:52.564Z,98343.75
2023-03-30T19:16:21.111Z,98346.13
2023-03-30T19:18:49.598Z,98343.69
2023-03-30T19:21:18.203Z,98334.59
2023-03-30T19:23:45.870Z,98331.25
2023-03-30T19:26:13.392Z,98328.06
2023-03-30T19:28:40.867Z,98322.34
2023-03-30T19:31:15.678Z,98337.59
2023-03-30T19:33:44.775Z,98333.16
2023-03-30T19:36:12.385Z,98331.06
2023-03-30T19:38:41.814Z,98329.25
2023-03-30T19:41:09.446Z,98326.53
2023-03-30T19:43:36.872Z,98316.78
2023-03-30T19:46:05.123Z,98318.50
2023-03-30T19:48:32.591Z,98313.06
2023-03-30T19:50:59.967Z,98312.75
2023-03-30T19:53:27.381Z,98317.19
2023-03-30T19:55:54.914Z,98314.91
2023-03-30T19:58:22.298Z,98306.06
2023-03-30T20:00:51.249Z,98309.69
2023-03-30T20:03:18.739Z,98305.25
2023-03-30T20:05:50.780Z,98310.78
2023-03-30T20:08:24.521Z,98299.31
2023-03-30T20:10:53.380Z,98302.50
2023-03-30T20:13:22.249Z,98289.81
2023-03-30T20:15:55.152Z,98292.06
2023-03-30T20:18:23.763Z,98290.34
2023-03-30T20:20:51.436Z,98291.22
2023-03-30T20:23:18.819Z,98281.72
2023-03-30T20:25:49.482Z,98278.63
2023-03-30T20:28:17.958Z,98281.31
2023-03-30T20:30:45.625Z,98274.66
2023-03-30T20:33:13.478Z,98279.97
2023-03-30T20:35:41.077Z,98279.94
2023-03-30T20:38:08.677Z,98278.03
2023-03-30T20:40:36.211Z,98281.09
2023-03-30T20:43:03.827Z,98280.16
2023-03-30T20:45:32.272Z,98278.91
2023-03-30T20:48:06.293Z,98272.34
2023-03-30T20:50:35.073Z,98270.53
2023-03-30T20:53:02.694Z,98261.16
2023-03-30T20:55:30.069Z,98269.34
2023-03-30T20:57:57.508Z,98259.78
2023-03-30T21:00:25.059Z,98260.31
2023-03-30T21:02:52.622Z,98263.22
2023-03-30T21:05:20.133Z,98265.34
2023-03-30T21:07:48.600Z,98253.00
2023-03-30T21:10:16.601Z,98261.38
2023-03-30T21:12:44.089Z,98262.28
2023-03-30T21:15:12.114Z,98254.34
2023-03-30T21:17:39.569Z,98253.44
2023-03-30T21:20:09.402Z,98256.19
2023-03-30T21:22:37.037Z,98243.53
2023-03-30T21:25:04.947Z,98244.63
2023-03-30T21:27:32.334Z,98242.19
2023-03-30T21:29:59.722Z,98237.09
2023-03-30T21:32:28.660Z,98245.06
2023-03-30T21:34:57.546Z,98227.97
2023-03-30T21:37:25.003Z,98226.28
2023-03-30T21:39:52.744Z,98223.97
2023-03-30T21:42:20.124Z,98209.44
2023-03-30T21:44:47.521Z,98208.06
2023-03-30T21:47:16.760Z,98216.53
2023-03-30T21:49:44.188Z,98214.59
2023-03-30T21:52:11.921Z,98200.59
2023-03-30T21:54:39.525Z,98197.63
2023-03-30T21:57:07.023Z,98195.84
2023-03-30T21:59:34.614Z,98191.78
2023-03-30T22:02:02.066Z,98189.41
2023-03-30T22:04:29.456Z,98182.28
2023-03-30T22:06:57.313Z,98171.53
2023-03-30T22:09:24.751Z,98167.72
2023-03-30T22:11:54.156Z,98162.56
2023-03-30T22:14:22.792Z,98162.59
2023-03-30T22:16:50.316Z,98153.81
2023-03-30T22:19:19.098Z,98163.50
2023-03-30T22:21:46.584Z,98165.03
2023-03-30T22:24:13.968Z,98160.84
2023-03-30T22:26:41.863Z,98165.94
2023-03-30T22:29:09.308Z,98166.19
2023-03-30T22:31:36.723Z,98161.69
2023-03-30T22:34:04.688Z,98163.91
2023-03-30T22:36:32.313Z,98153.59
2023-03-30T22:39:02.529Z,98150.09
2023-03-30T22:41:30.194Z,98137.81
2023-03-30T22:43:59.037Z,98141.75
2023-03-30T22:46:28.063Z,98129.19
2023-03-30T22:48:56.237Z,98121.03
2023-03-30T22:51:28.484Z,98110.75
2023-03-30T22:53:59.474Z,98109.84
2023-03-30T22:56:29.671Z,98107.47
2023-03-30T22:58:59.979Z,98102.63
2023-03-30T23:01:29.257Z,98099.44
2023-03-30T23:03:59.704Z,98093.13
2023-03-30T23:06:27.585Z,98089.06
2023-03-30T23:08:55.098Z,98081.81
2023-03-30T23:11:22.564Z,98074.69
2023-03-30T23:13:50.099Z,98066.00
2023-03-30T23:16:18.046Z,98070.09
2023-03-30T23:18:45.505Z,98057.97
2023-03-30T23:21:14.151Z,98065.13
2023-03-30T23:23:41.971Z,98065.09
2023-03-30T23:26:11.599Z,98065.13
2023-03-30T23:28:42.783Z,98060.47
2023-03-30T23:31:16.643Z,98066.00
2023-03-30T23:33:44.741Z,98055.53
2023-03-30T23:36:19.382Z,98065.22
2023-03-30T23:38:47.467Z,98070.03
2023-03-30T23:41:19.566Z,98077.22
2023-03-30T23:43:47.957Z,98098.31
2023-03-30T23:46:16.130Z,98136.31
2023-03-30T23:48:43.757Z,98132.69
2023-03-30T23:51:12.390Z,98125.25
2023-03-30T23:53:40.431Z,98111.41
2023-03-30T23:56:13.948Z,98098.75
2023-03-30T23:58:41.674Z,98079.34
